createdAt,value
2023-01-26T00:01:08.116Z,28.85
2023-01-26T00:03:34.506Z,28.60
2023-01-26T00:06:07.358Z,31.73
2023-01-26T00:08:40.772Z,30.23
2023-01-26T00:11:08.223Z,27.63
2023-01-26T00:13:35.149Z,28.85
2023-01-26T00:16:02.208Z,28.35
2023-01-26T00:18:28.705Z,29.48
2023-01-26T00:20:56.366Z,27.02
2023-01-26T00:23:22.693Z,31.85
2023-01-26T00:25:49.042Z,29.30
2023-01-26T00:28:15.393Z,28.27
2023-01-26T00:30:41.840Z,32.30
2023-01-26T00:33:08.324Z,32.90
2023-01-26T00:35:34.650Z,29.98
2023-01-26T00:38:01.145Z,32.13
2023-01-26T00:40:27.505Z,29.13
2023-01-26T00:42:54.676Z,28.55
2023-01-26T00:45:21.484Z,32.50
2023-01-26T00:47:47.826Z,29.13
2023-01-26T00:50:14.423Z,35.42
2023-01-26T00:52:40.889Z,34.75
2023-01-26T00:55:07.433Z,33.42
2023-01-26T00:57:33.760Z,29.17
2023-01-26T01:00:00.195Z,33.05
2023-01-26T01:02:26.568Z,34.90
2023-01-26T01:04:52.916Z,33.20
2023-01-26T01:07:19.226Z,29.60
2023-01-26T01:09:45.900Z,37.85
2023-01-26T01:12:12.258Z,34.90
2023-01-26T01:14:38.664Z,35.72
2023-01-26T01:17:05.052Z,34.60
2023-01-26T01:19:31.392Z,35.10
2023-01-26T01:21:57.812Z,37.70
2023-01-26T01:24:24.321Z,37.47
2023-01-26T01:26:50.736Z,35.88
2023-01-26T01:29:17.060Z,36.47
2023-01-26T01:31:43.701Z,41.63
2023-01-26T01:34:10.196Z,37.20
2023-01-26T01:36:36.523Z,37.75
2023-01-26T01:39:02.901Z,37.97
2023-01-26T01:41:29.248Z,40.15
2023-01-26T01:44:15.407Z,40.35
2023-01-26T01:46:55.913Z,39.30
2023-01-26T01:49:24.990Z,38.47
2023-01-26T01:51:53.882Z,40.40
2023-01-26T01:54:23.513Z,41.33
2023-01-26T01:56:51.980Z,40.95
2023-01-26T01:59:21.327Z,40.05
2023-01-26T02:01:49.865Z,42.72
2023-01-26T02:04:16.452Z,37.90
2023-01-26T02:06:47.115Z,44.72
2023-01-26T02:09:34.118Z,45.03
2023-01-26T02:12:02.194Z,44.22
2023-01-26T02:14:29.146Z,43.20
2023-01-26T02:16:55.536Z,44.92
2023-01-26T02:19:48.305Z,47.63
2023-01-26T02:22:22.139Z,46.15
2023-01-26T02:24:49.469Z,48.60
2023-01-26T02:27:15.853Z,46.90
2023-01-26T02:29:42.641Z,47.40
2023-01-26T02:32:08.957Z,43.80
2023-01-26T02:34:35.370Z,44.42
2023-01-26T02:37:01.747Z,47.97
2023-01-26T02:39:47.233Z,43.15
2023-01-26T02:42:32.351Z,44.10
2023-01-26T02:44:58.692Z,47.17
2023-01-26T02:47:24.991Z,46.05
2023-01-26T02:49:51.378Z,43.55
2023-01-26T02:52:19.094Z,44.28
2023-01-26T02:55:04.409Z,44.63
2023-01-26T02:57:30.976Z,47.83
2023-01-26T02:59:57.372Z,40.90
2023-01-26T03:02:23.776Z,41.03
2023-01-26T03:04:50.138Z,44.08
2023-01-26T03:07:16.802Z,41.83
2023-01-26T03:09:43.117Z,44.08
2023-01-26T03:12:09.485Z,45.33
2023-01-26T03:14:35.813Z,45.30
2023-01-26T03:17:02.219Z,43.25
2023-01-26T03:19:47.083Z,40.78
2023-01-26T03:22:31.986Z,44.88
2023-01-26T03:25:16.709Z,45.22
2023-01-26T03:27:44.786Z,40.33
2023-01-26T03:30:11.793Z,42.20
2023-01-26T03:32:38.349Z,45.47
2023-01-26T03:35:05.005Z,45.03
2023-01-26T03:37:36.698Z,44.85
2023-01-26T03:40:22.457Z,44.53
2023-01-26T03:43:07.526Z,39.53
2023-01-26T03:45:52.605Z,42.05
2023-01-26T03:48:37.796Z,45.50
2023-01-26T03:51:22.798Z,45.60
2023-01-26T03:54:07.885Z,42.97
2023-01-26T03:56:34.300Z,41.35
2023-01-26T03:59:12.867Z,42.95
2023-01-26T04:01:40.136Z,46.70
2023-01-26T04:04:25.921Z,42.20
2023-01-26T04:07:10.985Z,41.85
2023-01-26T04:09:39.470Z,46.40
2023-01-26T04:12:06.428Z,45.28
2023-01-26T04:14:51.531Z,40.53
2023-01-26T04:17:37.184Z,42.15
2023-01-26T04:20:23.257Z,48.10
2023-01-26T04:22:49.639Z,42.17
2023-01-26T04:25:17.628Z,42.78
2023-01-26T04:27:44.482Z,39.90
2023-01-26T04:30:12.162Z,44.92
2023-01-26T04:32:39.009Z,42.60
2023-01-26T04:35:06.243Z,43.97
2023-01-26T04:37:32.802Z,45.60
2023-01-26T04:39:59.167Z,44.30
2023-01-26T04:42:25.604Z,42.38
2023-01-26T04:44:52.379Z,47.85
2023-01-26T04:47:19.249Z,41.10
2023-01-26T04:49:45.991Z,42.65
2023-01-26T04:52:12.771Z,40.00
2023-01-26T04:54:39.416Z,41.30
2023-01-26T04:57:05.994Z,39.45
2023-01-26T04:59:32.418Z,41.38
2023-01-26T05:01:58.833Z,43.17
2023-01-26T05:04:25.229Z,40.58
2023-01-26T05:06:51.691Z,40.15
2023-01-26T05:09:18.087Z,41.50
2023-01-26T05:11:44.395Z,40.75
2023-01-26T05:14:10.802Z,36.20
2023-01-26T05:16:37.195Z,36.92
2023-01-26T05:19:03.611Z,41.38
2023-01-26T05:21:30.066Z,38.03
2023-01-26T05:23:56.519Z,33.15
2023-01-26T05:26:23.190Z,38.17
2023-01-26T05:28:49.594Z,35.70
2023-01-26T05:31:15.953Z,34.58
2023-01-26T05:33:42.326Z,37.88
2023-01-26T05:36:08.962Z,36.55
2023-01-26T05:38:35.399Z,36.25
2023-01-26T05:41:01.758Z,35.83
2023-01-26T05:43:28.110Z,35.65
2023-01-26T05:45:54.667Z,35.55
2023-01-26T05:48:22.080Z,33.50
2023-01-26T05:50:48.422Z,30.73
2023-01-26T05:53:15.117Z,28.92
2023-01-26T05:55:41.451Z,30.10
2023-01-26T05:58:07.861Z,28.15
2023-01-26T06:00:34.309Z,21.00
2023-01-26T06:03:00.626Z,26.52
2023-01-26T06:05:26.962Z,23.45
2023-01-26T06:07:53.361Z,27.85
2023-01-26T06:10:19.748Z,27.27
2023-01-26T06:12:46.109Z,27.77
2023-01-26T06:15:12.695Z,21.20
2023-01-26T06:17:39.420Z,20.77
2023-01-26T06:20:06.520Z,21.50
2023-01-26T06:22:32.852Z,28.38
2023-01-26T06:24:59.185Z,26.75
2023-01-26T06:27:25.480Z,22.40
2023-01-26T06:29:51.851Z,23.15
2023-01-26T06:32:18.519Z,23.52
2023-01-26T06:34:44.832Z,23.85
2023-01-26T06:37:11.234Z,26.00
2023-01-26T06:39:37.881Z,24.77
2023-01-26T06:42:04.635Z,28.20
2023-01-26T06:44:30.952Z,21.13
2023-01-26T06:46:57.352Z,21.55
2023-01-26T06:49:23.678Z,25.92
2023-01-26T06:52:03.267Z,18.85
2023-01-26T06:54:29.570Z,22.40
2023-01-26T06:56:55.938Z,32.17
2023-01-26T06:59:22.228Z,30.23
2023-01-26T07:01:49.040Z,21.05
2023-01-26T07:04:16.178Z,29.98
2023-01-26T07:06:43.673Z,30.90
2023-01-26T07:09:10.676Z,19.60
2023-01-26T07:11:37.285Z,18.27
2023-01-26T07:14:03.778Z,22.52
2023-01-26T07:16:31.949Z,24.08
2023-01-26T07:19:00.023Z,24.48
2023-01-26T07:21:28.250Z,25.58
2023-01-26T07:23:55.378Z,27.40
2023-01-26T07:26:22.168Z,25.40
2023-01-26T07:28:48.520Z,18.35
2023-01-26T07:31:15.191Z,17.88
2023-01-26T07:33:41.621Z,20.77
2023-01-26T07:36:08.151Z,19.02
2023-01-26T07:38:34.597Z,19.00
2023-01-26T07:41:05.116Z,19.73
2023-01-26T07:43:32.601Z,23.20
2023-01-26T07:45:58.934Z,13.75
2023-01-26T07:48:25.384Z,20.85
2023-01-26T07:50:51.917Z,17.08
2023-01-26T07:53:22.812Z,17.83
2023-01-26T07:55:49.430Z,20.05
2023-01-26T07:58:16.055Z,21.60
2023-01-26T08:00:42.445Z,22.98
2023-01-26T08:03:08.868Z,18.83
2023-01-26T08:05:36.983Z,21.40
2023-01-26T08:08:03.641Z,16.35
2023-01-26T08:10:31.615Z,20.40
2023-01-26T08:13:01.159Z,13.57
2023-01-26T08:15:27.982Z,20.92
2023-01-26T08:17:54.919Z,22.90
2023-01-26T08:20:21.596Z,20.52
2023-01-26T08:22:47.920Z,26.92
2023-01-26T08:25:14.339Z,19.45
2023-01-26T08:27:40.641Z,18.75
2023-01-26T08:30:07.721Z,16.67
2023-01-26T08:32:34.258Z,18.30
2023-01-26T08:35:00.784Z,21.50
2023-01-26T08:37:27.264Z,31.02
2023-01-26T08:39:53.668Z,20.85
2023-01-26T08:42:32.481Z,22.75
2023-01-26T08:44:58.828Z,32.72
2023-01-26T08:47:25.144Z,21.90
2023-01-26T08:49:51.520Z,25.02
2023-01-26T08:52:17.959Z,20.42
2023-01-26T08:54:44.377Z,29.42
2023-01-26T08:57:12.246Z,18.83
2023-01-26T08:59:38.568Z,20.92
2023-01-26T09:02:04.944Z,22.38
2023-01-26T09:04:31.360Z,19.05
2023-01-26T09:06:57.697Z,19.08
2023-01-26T09:09:24.453Z,21.50
2023-01-26T09:11:50.942Z,14.88
2023-01-26T09:14:17.364Z,19.98
2023-01-26T09:16:43.765Z,17.52
2023-01-26T09:19:10.099Z,22.27
2023-01-26T09:21:36.427Z,21.95
2023-01-26T09:24:02.881Z,15.23
2023-01-26T09:26:29.574Z,20.42
2023-01-26T09:28:55.918Z,23.35
2023-01-26T09:31:22.306Z,32.28
2023-01-26T09:33:49.815Z,15.88
2023-01-26T09:36:16.332Z,20.75
2023-01-26T09:38:42.649Z,23.58
2023-01-26T09:41:09.033Z,21.15
2023-01-26T09:43:57.197Z,19.75
2023-01-26T09:46:25.386Z,18.20
2023-01-26T09:48:57.843Z,23.15
2023-01-26T09:51:26.934Z,16.20
2023-01-26T09:53:59.359Z,18.08
2023-01-26T09:56:30.802Z,20.02
2023-01-26T09:59:06.626Z,18.75
2023-01-26T10:04:25.423Z,23.77
2023-01-26T10:06:56.690Z,18.13
2023-01-26T10:09:24.864Z,15.27
2023-01-26T10:11:53.117Z,28.52
2023-01-26T10:14:24.321Z,15.48
2023-01-26T10:16:51.574Z,14.70
2023-01-26T10:19:36.292Z,14.68
2023-01-26T10:22:05.971Z,19.15
2023-01-26T10:24:33.259Z,19.33
2023-01-26T10:26:59.688Z,22.60
2023-01-26T10:29:26.024Z,17.65
2023-01-26T10:31:52.460Z,16.83
2023-01-26T10:34:26.220Z,11.98
2023-01-26T10:36:56.806Z,19.10
2023-01-26T10:39:23.116Z,18.65
2023-01-26T10:41:57.970Z,21.10
2023-01-26T10:44:27.276Z,18.83
2023-01-26T10:47:23.132Z,12.10
2023-01-26T10:49:49.511Z,11.87
2023-01-26T10:52:23.450Z,15.85
2023-01-26T10:54:53.833Z,14.18
2023-01-26T10:57:30.600Z,12.98
2023-01-26T10:59:57.982Z,21.92
2023-01-26T11:02:27.594Z,12.75
2023-01-26T11:05:09.139Z,15.05
2023-01-26T11:07:45.823Z,15.73
2023-01-26T11:10:18.420Z,11.55
2023-01-26T11:12:44.939Z,15.15
2023-01-26T11:15:21.668Z,10.15
2023-01-26T11:17:51.020Z,11.95
2023-01-26T11:20:39.861Z,12.05
2023-01-26T11:23:12.546Z,14.90
2023-01-26T11:25:43.578Z,9.90
2023-01-26T11:28:15.942Z,15.98
2023-01-26T11:30:50.264Z,15.63
2023-01-26T11:33:29.868Z,20.80
2023-01-26T11:36:11.863Z,17.08
2023-01-26T11:38:39.933Z,15.57
2023-01-26T11:41:09.332Z,15.93
2023-01-26T11:43:38.465Z,24.25
2023-01-26T11:46:10.860Z,19.95
2023-01-26T11:48:56.087Z,15.70
2023-01-26T11:51:25.246Z,14.10
2023-01-26T11:54:03.086Z,20.58
2023-01-26T11:56:48.088Z,18.42
2023-01-26T11:59:28.732Z,8.55
2023-01-26T12:02:13.933Z,13.98
2023-01-26T12:04:45.408Z,18.00
2023-01-26T12:07:15.140Z,17.20
2023-01-26T12:09:45.153Z,17.25
2023-01-26T12:12:11.546Z,16.05
2023-01-26T12:14:41.796Z,17.42
2023-01-26T12:17:18.971Z,14.82
2023-01-26T12:19:57.293Z,15.25
2023-01-26T12:22:33.937Z,18.55
2023-01-26T12:25:28.822Z,22.88
2023-01-26T12:27:59.753Z,16.75
2023-01-26T12:30:39.405Z,18.05
2023-01-26T12:33:06.211Z,12.75
2023-01-26T12:35:40.265Z,19.90
2023-01-26T12:38:17.973Z,21.45
2023-01-26T12:41:01.257Z,20.67
2023-01-26T12:43:39.817Z,19.30
2023-01-26T12:46:07.917Z,17.27
2023-01-26T12:48:41.949Z,13.18
2023-01-26T12:51:15.984Z,11.32
2023-01-26T12:53:54.665Z,16.63
2023-01-26T12:56:44.157Z,22.98
2023-01-26T12:59:28.325Z,15.63
2023-01-26T13:02:19.752Z,21.75
2023-01-26T13:04:49.002Z,16.77
2023-01-26T13:07:30.914Z,14.65
2023-01-26T13:10:20.441Z,14.32
2023-01-26T13:12:48.587Z,16.73
2023-01-26T13:15:15.761Z,18.90
2023-01-26T13:17:48.703Z,13.77
2023-01-26T13:20:25.993Z,16.42
2023-01-26T13:22:53.086Z,27.67
2023-01-26T13:25:28.293Z,14.27
2023-01-26T13:27:59.089Z,16.02
2023-01-26T13:30:25.450Z,8.32
2023-01-26T13:32:53.156Z,10.20
2023-01-26T13:35:23.905Z,18.85
2023-01-26T13:37:53.290Z,14.45
2023-01-26T13:40:23.029Z,19.80
2023-01-26T13:42:56.358Z,19.80
2023-01-26T13:45:35.092Z,13.57
2023-01-26T13:48:02.112Z,19.63
2023-01-26T13:50:28.407Z,11.82
2023-01-26T13:52:54.719Z,21.70
2023-01-26T13:55:25.662Z,8.30
2023-01-26T13:58:10.911Z,12.35
2023-01-26T14:00:37.357Z,14.75
2023-01-26T14:03:03.998Z,11.52
2023-01-26T14:05:31.648Z,13.85
2023-01-26T14:07:59.419Z,6.72
2023-01-26T14:10:26.971Z,11.80
2023-01-26T14:12:57.375Z,11.20
2023-01-26T14:15:23.869Z,11.20
2023-01-26T14:17:52.104Z,11.13
2023-01-26T14:20:25.286Z,13.05
2023-01-26T14:23:03.756Z,7.13
2023-01-26T14:25:30.285Z,14.98
2023-01-26T14:27:56.637Z,14.82
2023-01-26T14:30:30.183Z,14.50
2023-01-26T14:32:59.927Z,10.52
2023-01-26T14:35:26.393Z,14.60
2023-01-26T14:38:04.447Z,16.02
2023-01-26T14:40:30.830Z,12.75
2023-01-26T14:42:57.618Z,11.40
2023-01-26T14:45:30.593Z,21.80
2023-01-26T14:48:00.162Z,10.50
2023-01-26T14:50:28.197Z,11.95
2023-01-26T14:52:54.566Z,7.75
2023-01-26T14:55:36.553Z,16.30
2023-01-26T14:58:04.489Z,12.70
2023-01-26T15:00:35.301Z,11.45
2023-01-26T15:03:06.828Z,19.73
2023-01-26T15:05:34.312Z,10.20
2023-01-26T15:08:05.024Z,8.27
2023-01-26T15:10:35.732Z,12.00
2023-01-26T15:13:04.041Z,12.43
2023-01-26T15:15:31.713Z,12.43
2023-01-26T15:18:02.007Z,11.95
2023-01-26T15:20:28.338Z,14.10
2023-01-26T15:22:54.835Z,13.15
2023-01-26T15:25:25.922Z,11.65
2023-01-26T15:27:53.611Z,8.52
2023-01-26T15:30:23.759Z,16.88
2023-01-26T15:32:50.100Z,14.93
2023-01-26T15:35:19.660Z,6.25
2023-01-26T15:37:46.363Z,10.93
2023-01-26T15:40:15.136Z,11.55
2023-01-26T15:42:41.827Z,8.73
2023-01-26T15:45:27.044Z,5.97
2023-01-26T15:47:53.503Z,10.13
2023-01-26T15:50:27.883Z,7.43
2023-01-26T15:52:54.952Z,5.43
2023-01-26T15:55:24.428Z,6.22
2023-01-26T15:57:50.912Z,11.75
2023-01-26T16:00:17.589Z,8.82
2023-01-26T16:02:44.486Z,3.88
2023-01-26T16:05:16.025Z,10.88
2023-01-26T16:07:42.619Z,8.15
2023-01-26T16:10:09.319Z,7.05
2023-01-26T16:12:35.756Z,5.38
2023-01-26T16:15:02.187Z,5.25
2023-01-26T16:17:28.772Z,11.65
2023-01-26T16:19:55.326Z,6.40
2023-01-26T16:22:21.995Z,14.02
2023-01-26T16:24:48.339Z,8.85
2023-01-26T16:27:14.683Z,11.57
2023-01-26T16:29:41.041Z,10.68
2023-01-26T16:32:24.028Z,12.32
2023-01-26T16:34:50.351Z,16.33
2023-01-26T16:37:16.697Z,6.53
2023-01-26T16:39:42.993Z,7.32
2023-01-26T16:42:11.189Z,11.05
2023-01-26T16:44:38.040Z,14.65
2023-01-26T16:47:04.879Z,9.20
2023-01-26T16:49:31.281Z,9.10
2023-01-26T16:51:57.596Z,9.18
2023-01-26T16:54:23.946Z,7.72
2023-01-26T16:56:50.291Z,7.68
2023-01-26T16:59:16.624Z,9.85
2023-01-26T17:01:43.053Z,9.00
2023-01-26T17:04:10.523Z,10.73
2023-01-26T17:06:36.833Z,7.53
2023-01-26T17:09:03.244Z,7.30
2023-01-26T17:11:29.641Z,6.82
2023-01-26T17:13:56.782Z,8.18
2023-01-26T17:16:25.398Z,10.98
2023-01-26T17:18:52.223Z,9.75
2023-01-26T17:21:19.544Z,8.77
2023-01-26T17:23:53.147Z,4.40
2023-01-26T17:26:20.602Z,12.45
2023-01-26T17:28:47.703Z,6.90
2023-01-26T17:31:17.482Z,6.63
2023-01-26T17:33:45.083Z,10.40
2023-01-26T17:36:11.959Z,7.50
2023-01-26T17:38:38.384Z,10.05
2023-01-26T17:41:05.284Z,10.82
2023-01-26T17:43:31.860Z,7.88
2023-01-26T17:46:05.284Z,10.52
2023-01-26T17:48:31.746Z,12.57
2023-01-26T17:50:58.133Z,13.38
2023-01-26T17:53:24.555Z,6.93
2023-01-26T17:55:54.314Z,9.10
2023-01-26T17:58:20.787Z,7.88
2023-01-26T18:00:47.231Z,10.85
2023-01-26T18:03:13.701Z,6.05
2023-01-26T18:05:40.011Z,9.68
2023-01-26T18:08:06.465Z,6.43
2023-01-26T18:10:32.847Z,13.32
2023-01-26T18:12:59.169Z,7.38
2023-01-26T18:15:25.514Z,15.73
2023-01-26T18:17:51.853Z,12.70
2023-01-26T18:20:18.325Z,11.52
2023-01-26T18:22:44.660Z,15.35
2023-01-26T18:25:11.716Z,9.48
2023-01-26T18:27:38.399Z,7.32
2023-01-26T18:30:05.001Z,8.50
2023-01-26T18:32:31.320Z,11.40
2023-01-26T18:34:57.636Z,10.75
2023-01-26T18:37:24.025Z,10.98
2023-01-26T18:39:50.409Z,13.20
2023-01-26T18:42:16.847Z,21.25
2023-01-26T18:44:43.201Z,8.75
2023-01-26T18:47:09.527Z,12.60
2023-01-26T18:49:35.854Z,7.20
2023-01-26T18:52:02.176Z,6.07
2023-01-26T18:54:29.247Z,13.18
2023-01-26T18:56:56.873Z,6.18
2023-01-26T18:59:23.218Z,5.93
2023-01-26T19:01:49.644Z,8.82
2023-01-26T19:04:18.171Z,11.52
2023-01-26T19:06:44.748Z,7.35
2023-01-26T19:09:11.748Z,12.52
2023-01-26T19:11:38.794Z,9.65
2023-01-26T19:14:05.802Z,8.63
2023-01-26T19:16:32.639Z,11.10
2023-01-26T19:18:59.252Z,8.88
2023-01-26T19:21:27.407Z,4.88
2023-01-26T19:23:54.934Z,9.40
2023-01-26T19:26:23.230Z,8.23
2023-01-26T19:28:50.964Z,10.43
2023-01-26T19:31:19.447Z,8.55
2023-01-26T19:33:49.722Z,9.05
2023-01-26T19:36:16.108Z,9.02
2023-01-26T19:38:42.594Z,8.75
2023-01-26T19:41:09.001Z,10.43
2023-01-26T19:43:35.551Z,5.20
2023-01-26T19:46:02.615Z,9.55
2023-01-26T19:48:29.234Z,10.00
2023-01-26T19:50:59.515Z,9.88
2023-01-26T19:53:26.230Z,8.63
2023-01-26T19:55:52.577Z,6.82
2023-01-26T19:58:19.052Z,10.90
2023-01-26T20:00:45.347Z,12.23
2023-01-26T20:03:11.652Z,13.25
2023-01-26T20:05:38.943Z,18.27
2023-01-26T20:08:05.317Z,12.82
2023-01-26T20:10:31.789Z,12.23
2023-01-26T20:12:58.575Z,10.32
2023-01-26T20:15:24.985Z,10.02
2023-01-26T20:17:51.378Z,12.25
2023-01-26T20:20:18.058Z,13.82
2023-01-26T20:22:44.390Z,12.10
2023-01-26T20:25:11.721Z,14.18
2023-01-26T20:27:38.347Z,12.07
2023-01-26T20:30:05.568Z,14.55
2023-01-26T20:32:31.939Z,8.90
2023-01-26T20:34:58.247Z,9.48
2023-01-26T20:37:24.610Z,20.15
2023-01-26T20:39:51.093Z,9.95
2023-01-26T20:42:18.844Z,17.58
2023-01-26T20:44:45.311Z,15.40
2023-01-26T20:47:11.722Z,11.85
2023-01-26T20:49:38.075Z,11.40
2023-01-26T20:52:08.197Z,10.02
2023-01-26T20:54:35.536Z,8.43
2023-01-26T20:57:02.292Z,17.77
2023-01-26T20:59:28.673Z,9.65
2023-01-26T21:01:55.074Z,14.18
2023-01-26T21:04:21.457Z,19.13
2023-01-26T21:06:47.817Z,14.30
2023-01-26T21:09:14.167Z,14.55
2023-01-26T21:11:40.620Z,11.43
2023-01-26T21:14:07.030Z,18.30
2023-01-26T21:16:35.625Z,13.40
2023-01-26T21:19:02.086Z,16.27
2023-01-26T21:21:28.430Z,21.60
2023-01-26T21:23:54.817Z,17.48
2023-01-26T21:26:22.944Z,13.32
2023-01-26T21:28:50.551Z,12.98
2023-01-26T21:31:17.037Z,18.02
2023-01-26T21:33:44.600Z,22.75
2023-01-26T21:36:12.880Z,20.35
2023-01-26T21:38:41.156Z,16.33
2023-01-26T21:41:30.420Z,16.15
2023-01-26T21:44:00.729Z,7.28
2023-01-26T21:46:27.417Z,20.55
2023-01-26T21:48:53.744Z,18.52
2023-01-26T21:51:38.747Z,13.02
2023-01-26T21:54:08.084Z,16.60
2023-01-26T21:56:34.896Z,14.85
2023-01-26T21:59:06.255Z,15.90
2023-01-26T22:01:33.577Z,17.60
2023-01-26T22:04:01.545Z,15.80
2023-01-26T22:06:28.383Z,14.07
2023-01-26T22:08:55.172Z,13.50
2023-01-26T22:11:22.220Z,17.35
2023-01-26T22:13:48.773Z,18.30
2023-01-26T22:16:15.324Z,17.60
2023-01-26T22:18:41.786Z,11.95
2023-01-26T22:21:08.126Z,17.45
2023-01-26T22:23:35.248Z,15.65
2023-01-26T22:26:05.577Z,20.38
2023-01-26T22:28:32.340Z,16.80
2023-01-26T22:31:02.990Z,29.50
2023-01-26T22:33:29.540Z,22.30
2023-01-26T22:35:59.999Z,17.63
2023-01-26T22:38:26.367Z,18.50
2023-01-26T22:40:52.680Z,16.20
2023-01-26T22:43:18.973Z,17.17
2023-01-26T22:45:45.323Z,18.08
2023-01-26T22:48:11.619Z,22.88
2023-01-26T22:50:38.104Z,27.00
2023-01-26T22:53:04.557Z,13.68
2023-01-26T22:55:30.872Z,19.17
2023-01-26T22:57:57.220Z,18.92
2023-01-26T23:00:23.620Z,19.27
2023-01-26T23:02:50.239Z,15.73
2023-01-26T23:05:16.662Z,18.33
2023-01-26T23:07:43.003Z,14.20
2023-01-26T23:10:09.789Z,14.13
2023-01-26T23:12:36.232Z,13.52
2023-01-26T23:15:02.574Z,21.40
2023-01-26T23:17:29.031Z,23.30
2023-01-26T23:19:55.408Z,19.05
2023-01-26T23:22:21.815Z,13.70
2023-01-26T23:25:08.096Z,18.63
2023-01-26T23:30:03.080Z,19.05
2023-01-26T23:32:29.736Z,16.63
2023-01-26T23:34:56.109Z,16.35
2023-01-26T23:37:22.514Z,16.85
2023-01-26T23:39:48.839Z,18.48
2023-01-26T23:42:15.965Z,18.23
2023-01-26T23:44:42.348Z,26.02
2023-01-26T23:47:08.813Z,19.33
2023-01-26T23:49:35.229Z,20.45
2023-01-26T23:52:01.550Z,19.00
2023-01-26T23:54:27.905Z,28.50
2023-01-26T23:56:54.258Z,18.83
2023-01-26T23:59:21.203Z,21.15
